createdAt,value
2022-10-11T00:00:41.665Z,4.65
2022-10-11T00:03:09.072Z,3.80
2022-10-11T00:05:37.026Z,5.18
2022-10-11T00:08:05.603Z,5.03
2022-10-11T00:10:33.722Z,4.65
2022-10-11T00:13:01.934Z,2.90
2022-10-11T00:15:28.989Z,3.17
2022-10-11T00:17:56.429Z,2.40
2022-10-11T00:20:24.180Z,5.07
2022-10-11T00:22:51.048Z,5.63
2022-10-11T00:25:18.392Z,5.10
2022-10-11T00:27:45.369Z,2.85
2022-10-11T00:30:13.103Z,3.40
2022-10-11T00:32:40.090Z,4.35
2022-10-11T00:35:08.102Z,4.45
2022-10-11T00:37:37.180Z,3.47
2022-10-11T00:40:08.378Z,3.50
2022-10-11T00:42:35.376Z,2.80
2022-10-11T00:45:40.807Z,5.20
2022-10-11T00:48:22.282Z,4.22
2022-10-11T00:50:49.792Z,3.22
2022-10-11T00:53:16.730Z,3.97
2022-10-11T00:55:53.855Z,2.78
2022-10-11T00:58:23.306Z,4.53
2022-10-11T01:00:51.306Z,5.28
2022-10-11T01:03:20.766Z,4.30
2022-10-11T01:05:47.809Z,2.22
2022-10-11T01:08:14.798Z,5.78
2022-10-11T01:10:41.816Z,4.32
2022-10-11T01:13:39.454Z,2.97
2022-10-11T01:16:34.142Z,3.15
2022-10-11T01:19:19.834Z,5.40
2022-10-11T01:22:11.765Z,5.15
2022-10-11T01:24:50.341Z,5.25
2022-10-11T01:27:38.635Z,7.88
2022-10-11T01:30:32.984Z,2.95
2022-10-11T01:33:24.361Z,5.30
2022-10-11T01:35:53.779Z,4.80
2022-10-11T01:38:34.519Z,3.65
2022-10-11T01:41:14.999Z,2.80
2022-10-11T01:43:42.605Z,2.42
2022-10-11T01:46:11.020Z,5.05
2022-10-11T01:48:53.983Z,2.90
2022-10-11T01:51:27.356Z,2.53
2022-10-11T01:54:03.474Z,5.38
2022-10-11T01:56:37.391Z,5.55
2022-10-11T01:59:16.380Z,2.83
2022-10-11T02:02:19.148Z,4.35
2022-10-11T02:04:54.636Z,5.43
2022-10-11T02:07:27.471Z,2.80
2022-10-11T02:10:10.087Z,5.00
2022-10-11T02:12:43.055Z,3.78
2022-10-11T02:15:13.991Z,4.47
2022-10-11T02:17:46.599Z,3.45
2022-10-11T02:20:18.808Z,4.88
2022-10-11T02:22:49.163Z,5.43
2022-10-11T02:27:54.691Z,2.83
2022-10-11T02:30:22.423Z,5.57
2022-10-11T02:32:51.554Z,6.55
2022-10-11T02:35:19.041Z,3.97
2022-10-11T02:37:51.803Z,5.07
2022-10-11T02:40:27.621Z,3.17
2022-10-11T02:43:11.072Z,7.45
2022-10-11T02:45:42.162Z,3.03
2022-10-11T02:48:12.029Z,5.07
2022-10-11T02:50:40.482Z,3.40
2022-10-11T02:53:08.620Z,3.22
2022-10-11T02:55:35.711Z,3.92
2022-10-11T02:58:03.429Z,5.30
2022-10-11T03:00:30.874Z,3.67
2022-10-11T03:02:58.351Z,4.57
2022-10-11T03:05:25.723Z,4.88
2022-10-11T03:07:52.585Z,4.68
2022-10-11T03:10:19.476Z,6.57
2022-10-11T03:12:47.042Z,6.25
2022-10-11T03:15:14.217Z,4.32
2022-10-11T03:17:41.243Z,2.83
2022-10-11T03:20:09.435Z,4.53
2022-10-11T03:22:36.422Z,4.05
2022-10-11T03:25:04.877Z,3.38
2022-10-11T03:27:33.028Z,3.30
2022-10-11T03:30:00.515Z,5.85
2022-10-11T03:32:29.408Z,4.25
2022-10-11T03:34:56.496Z,4.53
2022-10-11T03:37:23.717Z,3.53
2022-10-11T03:39:51.331Z,3.53
2022-10-11T03:42:18.856Z,3.60
2022-10-11T03:44:49.072Z,6.75
2022-10-11T03:47:17.174Z,2.85
2022-10-11T03:49:44.097Z,2.80
2022-10-11T03:52:11.728Z,5.88
2022-10-11T03:54:38.575Z,7.40
2022-10-11T03:57:05.369Z,3.53
2022-10-11T03:59:32.826Z,3.60
2022-10-11T04:01:59.931Z,4.25
2022-10-11T04:04:27.032Z,8.30
2022-10-11T04:06:53.791Z,3.63
2022-10-11T04:09:20.840Z,4.90
2022-10-11T04:11:47.735Z,2.97
2022-10-11T04:14:14.758Z,5.05
2022-10-11T04:16:41.997Z,4.82
2022-10-11T04:19:09.109Z,5.25
2022-10-11T04:21:35.921Z,5.65
2022-10-11T04:24:03.192Z,3.70
2022-10-11T04:26:30.600Z,4.32
2022-10-11T04:28:57.672Z,4.05
2022-10-11T04:31:25.000Z,3.10
2022-10-11T04:33:52.044Z,8.95
2022-10-11T04:36:20.420Z,2.22
2022-10-11T04:38:47.353Z,2.97
2022-10-11T04:41:15.208Z,4.18
2022-10-11T04:43:42.958Z,5.10
2022-10-11T04:46:10.561Z,4.43
2022-10-11T04:48:38.111Z,4.60
2022-10-11T04:51:05.485Z,4.80
2022-10-11T04:53:32.730Z,2.63
2022-10-11T04:56:04.301Z,1.65
2022-10-11T04:58:35.181Z,2.97
2022-10-11T05:01:02.552Z,3.00
2022-10-11T05:03:30.051Z,5.03
2022-10-11T05:05:57.014Z,2.13
2022-10-11T05:08:24.416Z,1.23
2022-10-11T05:11:03.984Z,3.58
2022-10-11T05:13:32.154Z,3.20
2022-10-11T05:15:59.305Z,8.88
2022-10-11T05:18:26.435Z,2.80
2022-10-11T05:21:06.550Z,2.50
2022-10-11T05:23:35.001Z,3.00
2022-10-11T05:26:02.671Z,2.40
2022-10-11T05:28:31.287Z,2.20
2022-10-11T05:30:58.663Z,5.40
2022-10-11T05:33:26.013Z,2.88
2022-10-11T05:35:53.015Z,4.25
2022-10-11T05:38:19.941Z,6.18
2022-10-11T05:40:46.748Z,3.75
2022-10-11T05:43:13.678Z,6.63
2022-10-11T05:45:42.814Z,3.35
2022-10-11T05:48:10.696Z,3.45
2022-10-11T05:50:38.582Z,5.70
2022-10-11T05:53:06.276Z,5.75
2022-10-11T05:55:40.909Z,2.42
2022-10-11T05:58:10.216Z,2.15
2022-10-11T06:00:38.038Z,2.58
2022-10-11T06:03:06.516Z,2.90
2022-10-11T06:05:34.772Z,3.25
2022-10-11T06:08:02.532Z,7.93
2022-10-11T06:10:29.979Z,3.28
2022-10-11T06:12:56.910Z,12.63
2022-10-11T06:15:23.908Z,5.32
2022-10-11T06:17:51.315Z,3.30
2022-10-11T06:20:18.475Z,3.13
2022-10-11T06:22:45.377Z,4.90
2022-10-11T06:25:12.298Z,2.03
2022-10-11T06:27:39.187Z,5.50
2022-10-11T06:30:07.400Z,4.50
2022-10-11T06:32:34.950Z,2.47
2022-10-11T06:35:03.462Z,5.47
2022-10-11T06:37:31.025Z,6.22
2022-10-11T06:39:58.373Z,4.70
2022-10-11T06:42:25.798Z,5.78
2022-10-11T06:44:52.686Z,3.35
2022-10-11T06:47:19.559Z,4.78
2022-10-11T06:49:46.411Z,7.57
2022-10-11T06:52:13.260Z,4.13
2022-10-11T06:54:44.760Z,4.60
2022-10-11T06:57:12.182Z,4.20
2022-10-11T06:59:39.268Z,3.22
2022-10-11T07:02:07.155Z,2.28
2022-10-11T07:04:34.192Z,3.47
2022-10-11T07:07:01.146Z,6.18
2022-10-11T07:09:28.039Z,4.03
2022-10-11T07:11:54.988Z,8.13
2022-10-11T07:14:21.878Z,5.63
2022-10-11T07:16:48.717Z,3.88
2022-10-11T07:19:15.548Z,10.20
2022-10-11T07:21:42.453Z,4.85
2022-10-11T07:24:09.379Z,8.05
2022-10-11T07:26:38.571Z,6.68
2022-10-11T07:29:08.639Z,8.25
2022-10-11T07:31:38.423Z,8.77
2022-10-11T07:34:05.672Z,12.50
2022-10-11T07:36:32.912Z,5.63
2022-10-11T07:38:59.889Z,6.68
2022-10-11T07:41:27.168Z,4.60
2022-10-11T07:43:55.070Z,6.28
2022-10-11T07:46:22.258Z,5.25
2022-10-11T07:48:50.245Z,8.05
2022-10-11T07:51:20.100Z,10.48
2022-10-11T07:53:48.930Z,9.98
2022-10-11T07:56:19.054Z,7.93
2022-10-11T07:58:57.291Z,6.68
2022-10-11T08:01:26.348Z,13.32
2022-10-11T08:03:54.008Z,8.82
2022-10-11T08:06:23.208Z,12.27
2022-10-11T08:08:50.461Z,5.65
2022-10-11T08:11:22.601Z,11.07
2022-10-11T08:13:50.266Z,6.95
2022-10-11T08:16:18.212Z,4.97
2022-10-11T08:18:45.218Z,6.63
2022-10-11T08:21:14.506Z,9.80
2022-10-11T08:23:42.020Z,5.75
2022-10-11T08:26:10.401Z,8.70
2022-10-11T08:28:37.632Z,5.80
2022-10-11T08:31:06.260Z,6.68
2022-10-11T08:33:33.199Z,5.78
2022-10-11T08:36:05.218Z,7.40
2022-10-11T08:38:32.810Z,8.13
2022-10-11T08:41:01.128Z,8.27
2022-10-11T08:44:06.606Z,7.72
2022-10-11T08:46:38.841Z,8.30
2022-10-11T08:49:09.715Z,9.10
2022-10-11T08:51:50.667Z,8.82
2022-10-11T08:54:31.210Z,9.45
2022-10-11T08:56:58.153Z,8.70
2022-10-11T08:59:46.668Z,7.45
2022-10-11T09:03:07.084Z,12.30
2022-10-11T09:05:36.210Z,9.15
2022-10-11T09:08:23.535Z,8.52
2022-10-11T09:10:56.657Z,9.15
2022-10-11T09:13:52.502Z,5.80
2022-10-11T09:16:25.432Z,7.03
2022-10-11T09:19:22.105Z,8.10
2022-10-11T09:21:58.010Z,6.15
2022-10-11T09:24:56.377Z,6.88
2022-10-11T09:27:50.362Z,5.10
2022-10-11T09:30:20.143Z,6.53
2022-10-11T09:33:08.754Z,6.45
2022-10-11T09:35:41.090Z,7.03
2022-10-11T09:38:18.903Z,5.32
2022-10-11T09:40:54.710Z,4.53
2022-10-11T09:43:21.773Z,3.85
2022-10-11T09:45:49.769Z,3.92
2022-10-11T09:48:40.724Z,4.78
2022-10-11T09:51:20.700Z,4.13
2022-10-11T09:53:50.819Z,4.57
2022-10-11T09:56:17.912Z,5.28
2022-10-11T09:58:44.869Z,5.47
2022-10-11T10:01:21.699Z,6.95
2022-10-11T10:04:03.284Z,5.22
2022-10-11T10:06:30.840Z,5.75
2022-10-11T10:09:33.163Z,5.32
2022-10-11T10:12:12.554Z,6.13
2022-10-11T10:14:41.182Z,4.43
2022-10-11T10:17:17.116Z,5.32
2022-10-11T10:19:50.439Z,8.15
2022-10-11T10:22:23.716Z,7.13
2022-10-11T10:24:52.198Z,4.60
2022-10-11T10:27:23.472Z,5.20
2022-10-11T10:30:02.694Z,6.22
2022-10-11T10:32:48.221Z,4.50
2022-10-11T10:35:41.848Z,8.02
2022-10-11T10:38:32.690Z,8.07
2022-10-11T10:41:04.281Z,7.78
2022-10-11T10:43:37.585Z,7.10
2022-10-11T10:46:37.710Z,8.05
2022-10-11T10:49:48.885Z,9.10
2022-10-11T10:52:29.102Z,9.13
2022-10-11T10:55:28.352Z,5.78
2022-10-11T10:58:39.678Z,8.17
2022-10-11T11:01:19.081Z,8.25
2022-10-11T11:04:07.491Z,6.97
2022-10-11T11:06:50.144Z,10.15
2022-10-11T11:09:31.845Z,7.63
2022-10-11T11:12:32.598Z,8.95
2022-10-11T11:15:22.271Z,9.20
2022-10-11T11:18:12.992Z,8.38
2022-10-11T11:20:52.029Z,8.60
2022-10-11T11:23:27.203Z,9.23
2022-10-11T11:26:09.255Z,9.15
2022-10-11T11:29:02.540Z,7.93
2022-10-11T11:31:40.536Z,6.55
2022-10-11T11:34:24.070Z,6.82
2022-10-11T11:37:25.299Z,7.00
2022-10-11T11:39:57.593Z,7.87
2022-10-11T11:42:48.983Z,6.20
2022-10-11T11:45:53.707Z,6.43
2022-10-11T11:48:27.027Z,8.70
2022-10-11T11:51:03.105Z,6.88
2022-10-11T11:53:44.163Z,6.83
2022-10-11T11:56:24.770Z,7.43
2022-10-11T11:59:10.192Z,6.57
2022-10-11T12:01:46.901Z,8.40
2022-10-11T12:04:31.310Z,7.55
2022-10-11T12:07:17.945Z,6.68
2022-10-11T12:09:51.400Z,7.00
2022-10-11T12:12:34.086Z,7.32
2022-10-11T12:15:16.173Z,6.47
2022-10-11T12:17:58.095Z,8.02
2022-10-11T12:20:31.677Z,9.38
2022-10-11T12:23:00.897Z,9.35
2022-10-11T12:25:28.600Z,7.33
2022-10-11T12:28:01.238Z,7.50
2022-10-11T12:30:47.918Z,8.73
2022-10-11T12:33:30.759Z,6.85
2022-10-11T12:36:19.644Z,7.43
2022-10-11T12:38:46.554Z,8.60
2022-10-11T12:41:33.723Z,6.55
2022-10-11T12:44:22.736Z,5.35
2022-10-11T12:46:55.681Z,10.45
2022-10-11T12:49:38.025Z,12.27
2022-10-11T12:52:23.885Z,7.20
2022-10-11T12:55:12.599Z,8.55
2022-10-11T12:57:54.614Z,8.73
2022-10-11T13:00:31.149Z,6.73
2022-10-11T13:03:04.628Z,6.95
2022-10-11T13:05:48.704Z,8.23
2022-10-11T13:08:28.705Z,5.75
2022-10-11T13:10:59.097Z,5.05
2022-10-11T13:13:40.807Z,5.75
2022-10-11T13:16:49.123Z,6.45
2022-10-11T13:19:21.097Z,7.05
2022-10-11T13:21:54.460Z,6.70
2022-10-11T13:24:23.093Z,5.70
2022-10-11T13:26:52.615Z,6.97
2022-10-11T13:29:33.818Z,6.75
2022-10-11T13:32:07.692Z,5.65
2022-10-11T13:34:40.624Z,5.70
2022-10-11T13:37:14.379Z,6.03
2022-10-11T13:39:41.914Z,8.80
2022-10-11T13:42:13.724Z,6.15
2022-10-11T13:44:42.138Z,6.25
2022-10-11T13:47:18.337Z,6.13
2022-10-11T13:50:18.901Z,6.82
2022-10-11T13:52:59.697Z,7.43
2022-10-11T13:55:33.799Z,6.45
2022-10-11T13:58:11.219Z,5.50
2022-10-11T14:00:40.074Z,8.10
2022-10-11T14:03:16.529Z,8.35
2022-10-11T14:05:53.813Z,7.65
2022-10-11T14:08:39.915Z,8.32
2022-10-11T14:11:08.156Z,6.63
2022-10-11T14:13:36.818Z,5.97
2022-10-11T14:16:08.520Z,5.72
2022-10-11T14:18:42.909Z,6.85
2022-10-11T14:21:45.254Z,8.20
2022-10-11T14:24:13.162Z,7.90
2022-10-11T14:26:44.339Z,7.80
2022-10-11T14:29:23.199Z,6.68
2022-10-11T14:31:50.337Z,6.77
2022-10-11T14:34:23.298Z,6.03
2022-10-11T14:36:51.400Z,6.55
2022-10-11T14:39:22.352Z,7.33
2022-10-11T14:41:50.018Z,6.30
2022-10-11T14:44:17.752Z,6.33
2022-10-11T14:46:46.351Z,5.63
2022-10-11T14:49:13.113Z,6.00
2022-10-11T14:51:40.248Z,6.05
2022-10-11T14:54:07.860Z,6.15
2022-10-11T14:56:35.643Z,6.55
2022-10-11T14:59:02.842Z,5.65
2022-10-11T15:01:29.974Z,6.40
2022-10-11T15:03:56.850Z,6.87
2022-10-11T15:06:32.197Z,7.60
2022-10-11T15:08:59.181Z,7.72
2022-10-11T15:11:26.533Z,6.72
2022-10-11T15:13:53.457Z,6.85
2022-10-11T15:16:21.411Z,6.75
2022-10-11T15:18:52.829Z,6.27
2022-10-11T15:21:21.871Z,7.47
2022-10-11T15:23:50.014Z,7.33
2022-10-11T15:26:20.099Z,6.97
2022-10-11T15:28:48.368Z,6.95
2022-10-11T15:31:15.564Z,8.10
2022-10-11T15:33:42.474Z,6.20
2022-10-11T15:36:16.448Z,6.82
2022-10-11T15:38:44.501Z,6.57
2022-10-11T15:41:13.298Z,7.60
2022-10-11T15:43:40.625Z,8.70
2022-10-11T15:46:08.212Z,8.33
2022-10-11T15:48:35.665Z,6.30
2022-10-11T15:51:02.597Z,8.73
2022-10-11T15:53:31.271Z,6.63
2022-10-11T15:56:01.460Z,8.50
2022-10-11T15:58:33.446Z,8.20
2022-10-11T16:01:05.552Z,7.05
2022-10-11T16:03:33.871Z,7.03
2022-10-11T16:06:05.191Z,7.30
2022-10-11T16:08:34.701Z,8.48
2022-10-11T16:11:02.285Z,7.13
2022-10-11T16:13:29.389Z,7.72
2022-10-11T16:15:56.416Z,7.40
2022-10-11T16:18:23.303Z,6.30
2022-10-11T16:20:51.965Z,6.55
2022-10-11T16:23:20.909Z,7.43
2022-10-11T16:26:02.521Z,10.80
2022-10-11T16:28:30.015Z,7.50
2022-10-11T16:30:57.486Z,7.00
2022-10-11T16:33:24.706Z,7.60
2022-10-11T16:35:51.474Z,8.40
2022-10-11T16:38:18.261Z,9.00
2022-10-11T16:40:45.061Z,7.50
2022-10-11T16:43:12.506Z,6.90
2022-10-11T16:45:39.318Z,8.52
2022-10-11T16:48:06.309Z,7.68
2022-10-11T16:50:38.302Z,7.53
2022-10-11T16:53:06.144Z,8.35
2022-10-11T16:55:33.111Z,7.88
2022-10-11T16:58:01.130Z,8.83
2022-10-11T17:00:28.288Z,7.65
2022-10-11T17:02:55.398Z,6.47
2022-10-11T17:05:22.314Z,6.70
2022-10-11T17:07:49.251Z,8.15
2022-10-11T17:10:16.047Z,8.30
2022-10-11T17:12:47.749Z,7.43
2022-10-11T17:15:16.772Z,7.82
2022-10-11T17:17:43.690Z,7.10
2022-10-11T17:20:10.739Z,9.00
2022-10-11T17:22:37.568Z,10.10
2022-10-11T17:25:05.700Z,7.85
2022-10-11T17:27:33.011Z,7.45
2022-10-11T17:30:00.660Z,9.13
2022-10-11T17:32:28.030Z,7.45
2022-10-11T17:34:55.282Z,8.32
2022-10-11T17:37:22.257Z,8.43
2022-10-11T17:39:49.762Z,7.53
2022-10-11T17:42:16.582Z,7.68
2022-10-11T17:44:43.533Z,8.10
2022-10-11T17:47:10.696Z,7.30
2022-10-11T17:49:37.688Z,8.07
2022-10-11T17:52:04.594Z,7.30
2022-10-11T17:54:31.824Z,8.35
2022-10-11T17:56:58.617Z,5.47
2022-10-11T17:59:27.589Z,4.40
2022-10-11T18:01:55.003Z,6.78
2022-10-11T18:04:22.482Z,6.95
2022-10-11T18:06:49.757Z,5.80
2022-10-11T18:09:18.680Z,4.85
2022-10-11T18:11:45.942Z,6.22
2022-10-11T18:14:13.081Z,7.45
2022-10-11T18:16:40.433Z,7.50
2022-10-11T18:19:13.274Z,6.35
2022-10-11T18:21:40.876Z,10.40
2022-10-11T18:24:11.990Z,7.75
2022-10-11T18:26:39.467Z,6.25
2022-10-11T18:29:06.916Z,8.10
2022-10-11T18:31:35.281Z,6.25
2022-10-11T18:34:04.954Z,5.82
2022-10-11T18:36:32.920Z,6.28
2022-10-11T18:39:05.970Z,8.07
2022-10-11T18:41:34.028Z,11.63
2022-10-11T18:44:03.716Z,12.07
2022-10-11T18:46:31.621Z,9.30
2022-10-11T18:49:01.966Z,7.82
2022-10-11T18:51:35.720Z,9.57
2022-10-11T18:54:06.072Z,9.60
2022-10-11T18:56:34.629Z,7.88
2022-10-11T18:59:01.431Z,8.10
2022-10-11T19:01:40.821Z,6.30
2022-10-11T19:04:10.521Z,8.07
2022-10-11T19:06:40.358Z,11.57
2022-10-11T19:09:13.291Z,7.13
2022-10-11T19:11:40.914Z,7.10
2022-10-11T19:14:11.406Z,9.32
2022-10-11T19:16:42.436Z,6.22
2022-10-11T19:19:12.464Z,7.85
2022-10-11T19:21:39.727Z,7.93
2022-10-11T19:24:07.043Z,7.30
2022-10-11T19:26:36.681Z,10.60
2022-10-11T19:29:15.516Z,11.38
2022-10-11T19:31:45.270Z,11.05
2022-10-11T19:34:13.143Z,9.43
2022-10-11T19:36:42.720Z,12.40
2022-10-11T19:39:15.318Z,9.75
2022-10-11T19:41:42.761Z,10.45
2022-10-11T19:44:10.381Z,9.43
2022-10-11T19:46:51.056Z,9.20
2022-10-11T19:49:24.180Z,9.25
2022-10-11T19:51:52.300Z,10.77
2022-10-11T19:54:19.807Z,11.10
2022-10-11T19:56:46.956Z,14.63
2022-10-11T19:59:15.096Z,9.05
2022-10-11T20:01:42.576Z,14.60
2022-10-11T20:04:27.510Z,10.02
2022-10-11T20:06:58.919Z,10.52
2022-10-11T20:09:30.635Z,8.30
2022-10-11T20:11:58.742Z,10.68
2022-10-11T20:14:26.183Z,9.43
2022-10-11T20:16:53.405Z,9.00
2022-10-11T20:19:25.032Z,9.40
2022-10-11T20:21:55.600Z,8.77
2022-10-11T20:24:22.529Z,8.93
2022-10-11T20:26:49.301Z,9.02
2022-10-11T20:29:16.998Z,8.65
2022-10-11T20:31:43.908Z,9.07
2022-10-11T20:34:11.469Z,7.63
2022-10-11T20:36:38.358Z,8.85
2022-10-11T20:39:06.617Z,9.52
2022-10-11T20:41:39.959Z,8.70
2022-10-11T20:44:08.826Z,7.55
2022-10-11T20:46:39.592Z,10.35
2022-10-11T20:49:09.697Z,8.73
2022-10-11T20:51:38.654Z,10.30
2022-10-11T20:54:06.215Z,9.60
2022-10-11T20:56:34.318Z,8.35
2022-10-11T20:59:01.712Z,10.13
2022-10-11T21:01:33.170Z,9.38
2022-10-11T21:04:01.818Z,8.75
2022-10-11T21:06:30.311Z,8.27
2022-10-11T21:08:59.133Z,11.77
2022-10-11T21:11:31.251Z,10.10
2022-10-11T21:14:00.837Z,7.20
2022-10-11T21:16:27.977Z,8.10
2022-10-11T21:18:56.789Z,10.05
2022-10-11T21:21:24.893Z,6.60
2022-10-11T21:24:02.060Z,6.70
2022-10-11T21:26:30.344Z,9.50
2022-10-11T21:28:59.370Z,6.65
2022-10-11T21:31:31.069Z,8.43
2022-10-11T21:33:59.922Z,8.93
2022-10-11T21:36:26.924Z,6.30
2022-10-11T21:38:54.397Z,7.22
2022-10-11T21:41:25.870Z,8.32
2022-10-11T21:43:53.425Z,9.25
2022-10-11T21:46:32.533Z,9.65
2022-10-11T21:49:08.927Z,7.15
2022-10-11T21:51:35.940Z,7.22
2022-10-11T21:54:02.855Z,7.85
2022-10-11T21:56:30.196Z,8.43
2022-10-11T21:58:57.576Z,6.65
2022-10-11T22:01:25.616Z,8.35
2022-10-11T22:03:53.846Z,8.40
2022-10-11T22:06:21.302Z,7.70
2022-10-11T22:08:49.966Z,9.48
2022-10-11T22:11:17.578Z,7.13
2022-10-11T22:13:44.629Z,8.50
2022-10-11T22:16:14.188Z,8.57
2022-10-11T22:18:42.453Z,8.70
2022-10-11T22:21:18.129Z,10.38
2022-10-11T22:23:48.515Z,6.05
2022-10-11T22:26:20.607Z,5.50
2022-10-11T22:28:48.681Z,5.88
2022-10-11T22:31:18.187Z,7.25
2022-10-11T22:36:18.926Z,5.50
2022-10-11T22:38:46.381Z,6.88
2022-10-11T22:41:13.646Z,5.07
2022-10-11T22:43:40.588Z,6.43
2022-10-11T22:46:07.865Z,7.95
2022-10-11T22:48:34.866Z,11.00
2022-10-11T22:51:01.679Z,9.25
2022-10-11T22:53:29.119Z,7.75
2022-10-11T22:55:56.200Z,8.00
2022-10-11T22:58:23.155Z,7.85
2022-10-11T23:00:50.194Z,6.85
2022-10-11T23:03:18.385Z,9.48
2022-10-11T23:05:57.418Z,10.45
2022-10-11T23:08:25.799Z,10.85
2022-10-11T23:10:52.905Z,9.05
2022-10-11T23:13:20.007Z,8.88
2022-10-11T23:15:46.848Z,8.40
2022-10-11T23:18:15.955Z,10.40
2022-10-11T23:20:42.822Z,9.95
2022-10-11T23:23:09.743Z,7.07
2022-10-11T23:25:36.660Z,7.93
2022-10-11T23:28:03.816Z,10.95
2022-10-11T23:30:31.501Z,9.90
2022-10-11T23:32:58.579Z,10.10
2022-10-11T23:35:25.577Z,6.00
2022-10-11T23:37:55.493Z,5.43
2022-10-11T23:40:22.607Z,8.43
2022-10-11T23:42:49.534Z,9.68
2022-10-11T23:45:16.597Z,10.73
2022-10-11T23:47:43.514Z,9.45
2022-10-11T23:50:10.426Z,9.00
2022-10-11T23:52:37.295Z,6.20
2022-10-11T23:55:04.441Z,7.68
2022-10-11T23:57:31.397Z,5.25
2022-10-11T23:59:58.399Z,6.50
